Time;durP1;ratioP1;P1;durP2;ratioP2;P2;SDS_P1;SDS_P2;PMS_P1;PMS_P2;Temp;Humidity;BMP_temperature;BMP_pressure;BME280_temperature;BME280_humidity;BME280_pressure;Samples;Min_cycle;Max_cycle;Signal;HPM_P1;HPM_P2
2023/10/11 00:01:19;;;;;;;3.27;2.80;;;20.00;61.40;;;;;;5064670;28;20470;-52
2023/10/11 00:03:53;;;;;;;4.23;2.80;;;20.00;61.70;;;;;;5066110;28;20454;-52
2023/10/11 00:06:24;;;;;;;3.20;2.90;;;20.00;61.50;;;;;;5064135;28;20609;-52
2023/10/11 00:08:53;;;;;;;4.30;3.00;;;20.10;61.90;;;;;;5067648;28;20469;-52
2023/10/11 00:11:30;;;;;;;4.73;4.17;;;20.00;61.60;;;;;;5066622;28;20477;-49
2023/10/11 00:13:58;;;;;;;2.90;2.60;;;20.10;61.60;;;;;;5067822;28;20818;-51
2023/10/11 00:16:31;;;;;;;4.57;3.30;;;20.10;61.90;;;;;;5063353;28;20466;-49
2023/10/11 00:18:59;;;;;;;4.70;3.47;;;20.00;61.70;;;;;;5067424;28;20434;-51
2023/10/11 00:21:40;;;;;;;5.53;3.20;;;20.00;61.60;;;;;;5062499;28;21023;-52
2023/10/11 00:24:09;;;;;;;3.13;2.83;;;20.00;61.70;;;;;;5067452;28;20470;-49
2023/10/11 00:26:40;;;;;;;3.37;3.07;;;20.10;61.70;;;;;;5066529;28;20500;-52
2023/10/11 00:29:11;;;;;;;4.20;3.40;;;20.00;62.10;;;;;;5067693;28;20438;-51
2023/10/11 00:31:39;;;;;;;3.90;3.30;;;20.00;62.00;;;;;;5064392;28;20482;-51
2023/10/11 00:34:10;;;;;;;3.57;3.27;;;20.10;61.80;;;;;;5066417;28;20474;-51
2023/10/11 00:36:45;;;;;;;3.20;2.63;;;20.00;62.00;;;;;;5063404;28;20478;-51
2023/10/11 00:39:17;;;;;;;3.77;3.43;;;20.10;62.40;;;;;;5066636;28;20773;-50
2023/10/11 00:41:48;;;;;;;3.63;2.70;;;20.00;61.90;;;;;;5061769;28;20478;-51
2023/10/11 00:44:20;;;;;;;5.63;2.87;;;20.00;61.80;;;;;;5066154;28;20462;-52
2023/10/11 00:46:57;;;;;;;4.20;3.63;;;20.10;62.30;;;;;;5064970;28;20701;-52
2023/10/11 00:49:34;;;;;;;3.87;2.90;;;20.00;62.00;;;;;;5066607;28;20509;-50
2023/10/11 00:52:06;;;;;;;5.00;3.70;;;20.00;62.30;;;;;;5061844;28;21052;-50
2023/10/11 00:54:35;;;;;;;6.63;4.57;;;20.00;62.10;;;;;;5067945;28;20462;-50
2023/10/11 00:57:04;;;;;;;4.20;3.80;;;20.00;62.00;;;;;;5066813;28;20817;-52
2023/10/11 00:59:32;;;;;;;5.17;3.43;;;20.00;62.50;;;;;;5065503;28;20541;-51
2023/10/11 01:02:01;;;;;;;3.90;3.20;;;20.00;62.50;;;;;;5066968;28;20499;-50
2023/10/11 01:04:38;;;;;;;3.50;2.87;;;20.00;62.60;;;;;;5066082;28;20458;-50
2023/10/11 01:07:09;;;;;;;4.17;3.77;;;20.10;62.50;;;;;;5063024;28;20945;-50
2023/10/11 01:09:37;;;;;;;3.47;2.83;;;20.00;62.60;;;;;;5066778;28;20677;-52
2023/10/11 01:12:06;;;;;;;3.93;3.43;;;20.00;62.40;;;;;;5066528;28;20955;-52
2023/10/11 01:14:55;;;;;;;3.50;3.20;;;20.00;62.30;;;;;;5064433;28;20507;-52
2023/10/11 01:17:23;;;;;;;3.60;3.30;;;20.10;62.20;;;;;;5065282;28;20505;-51
2023/10/11 01:19:52;;;;;;;4.63;3.30;;;20.00;62.40;;;;;;5063148;28;20553;-50
2023/10/11 01:22:21;;;;;;;3.20;2.83;;;20.00;62.60;;;;;;5062373;28;20451;-52
2023/10/11 01:24:50;;;;;;;3.63;3.00;;;20.00;62.50;;;;;;5064799;28;20556;-51
2023/10/11 01:27:18;;;;;;;4.43;3.67;;;20.00;62.60;;;;;;5065266;28;20448;-50
2023/10/11 01:29:46;;;;;;;3.77;3.27;;;20.00;62.40;;;;;;5062530;28;20442;-52
2023/10/11 01:32:15;;;;;;;6.03;3.57;;;20.00;62.60;;;;;;5065334;28;21691;-52
2023/10/11 01:34:44;;;;;;;6.70;4.23;;;20.00;62.50;;;;;;5065848;28;20508;-52
2023/10/11 01:37:12;;;;;;;4.87;3.47;;;20.00;63.60;;;;;;5061221;28;20549;-51
2023/10/11 01:39:42;;;;;;;7.10;3.90;;;20.00;62.60;;;;;;5064440;28;20441;-52
2023/10/11 01:42:10;;;;;;;4.60;3.23;;;20.00;62.50;;;;;;5064088;28;20470;-50
2023/10/11 01:44:39;;;;;;;5.30;3.80;;;20.00;62.60;;;;;;5063032;28;20454;-51
2023/10/11 01:47:08;;;;;;;6.30;2.97;;;20.00;62.40;;;;;;5061713;28;20947;-51
2023/10/11 01:49:39;;;;;;;5.47;3.40;;;20.00;62.50;;;;;;5065486;28;20526;-52
2023/10/11 01:52:08;;;;;;;4.67;4.00;;;20.00;62.60;;;;;;5061579;28;20466;-50
2023/10/11 01:54:36;;;;;;;4.13;3.30;;;20.00;62.60;;;;;;5066121;28;20458;-52
2023/10/11 01:57:06;;;;;;;4.10;3.67;;;20.00;62.30;;;;;;5064520;28;20879;-50
2023/10/11 01:59:34;;;;;;;3.80;3.40;;;20.00;62.40;;;;;;5062114;28;20485;-51
2023/10/11 02:02:03;;;;;;;5.60;3.80;;;20.00;62.10;;;;;;5061590;28;20474;-52
2023/10/11 02:04:31;;;;;;;4.60;3.40;;;20.00;62.30;;;;;;5064640;28;20553;-51
2023/10/11 02:07:00;;;;;;;6.83;3.63;;;20.00;62.50;;;;;;5060856;28;20507;-52
2023/10/11 02:09:28;;;;;;;5.80;3.33;;;20.00;63.60;;;;;;5065552;28;20970;-52
2023/10/11 02:11:58;;;;;;;4.93;3.90;;;20.00;62.40;;;;;;5064302;28;20979;-52
2023/10/11 02:14:29;;;;;;;4.80;4.07;;;20.00;62.10;;;;;;5063172;28;20858;-52
2023/10/11 02:16:57;;;;;;;5.60;4.00;;;20.00;62.40;;;;;;5060953;28;20651;-51
2023/10/11 02:19:26;;;;;;;4.70;3.20;;;20.00;62.20;;;;;;5064712;28;20446;-51
2023/10/11 02:21:59;;;;;;;6.07;3.50;;;20.00;62.50;;;;;;5062525;28;20470;-52
2023/10/11 02:24:28;;;;;;;5.27;3.97;;;20.00;62.20;;;;;;5065947;28;20797;-52
2023/10/11 02:26:58;;;;;;;4.23;3.63;;;20.00;62.00;;;;;;5064988;28;20842;-52
2023/10/11 02:29:28;;;;;;;9.20;3.40;;;20.00;61.90;;;;;;5065761;28;20935;-52
2023/10/11 02:31:58;;;;;;;5.63;2.67;;;20.00;61.80;;;;;;5063111;28;20549;-52
2023/10/11 02:34:27;;;;;;;5.97;3.80;;;20.00;62.10;;;;;;5065243;28;20445;-50
2023/10/11 02:36:57;;;;;;;5.50;3.23;;;20.00;61.90;;;;;;5062056;28;20480;-52
2023/10/11 02:39:31;;;;;;;4.87;3.20;;;20.00;63.00;;;;;;5063288;28;20479;-51
2023/10/11 02:42:01;;;;;;;5.30;3.33;;;20.00;62.00;;;;;;5060031;28;20997;-52
2023/10/11 02:44:31;;;;;;;5.23;3.13;;;20.00;62.00;;;;;;5061847;28;20465;-52
2023/10/11 02:46:59;;;;;;;3.73;3.27;;;20.00;62.10;;;;;;5064950;28;20466;-52
2023/10/11 02:49:31;;;;;;;5.00;3.50;;;20.00;62.60;;;;;;5064827;28;20473;-52
2023/10/11 02:52:06;;;;;;;4.90;3.37;;;20.00;62.40;;;;;;5062359;28;20466;-52
2023/10/11 02:54:38;;;;;;;4.40;3.23;;;20.00;62.00;;;;;;5065408;28;20461;-52
2023/10/11 02:57:08;;;;;;;4.60;3.60;;;20.00;61.50;;;;;;5065332;28;20499;-51
2023/10/11 02:59:44;;;;;;;6.17;3.17;;;20.00;61.80;;;;;;5063960;28;20683;-52
2023/10/11 03:02:15;;;;;;;3.77;2.90;;;20.00;62.20;;;;;;5061282;28;20473;-52
2023/10/11 03:04:46;;;;;;;5.00;3.20;;;20.00;62.00;;;;;;5065317;28;20450;-52
2023/10/11 03:07:15;;;;;;;4.30;2.73;;;20.00;61.80;;;;;;5061796;28;20975;-52
2023/10/11 03:09:43;;;;;;;4.30;3.07;;;20.00;61.90;;;;;;5063329;28;20505;-52
2023/10/11 03:12:18;;;;;;;4.17;3.47;;;20.00;62.00;;;;;;5066666;28;20434;-52
2023/10/11 03:14:54;;;;;;;5.13;3.67;;;20.00;61.90;;;;;;5068072;28;20469;-52
2023/10/11 03:17:23;;;;;;;4.33;3.10;;;20.00;61.80;;;;;;5068110;28;20533;-52
2023/10/11 03:19:52;;;;;;;3.90;3.10;;;19.90;61.20;;;;;;5068042;28;20876;-52
2023/10/11 03:22:21;;;;;;;5.47;3.47;;;19.90;61.00;;;;;;5066376;28;20975;-51
2023/10/11 03:24:59;;;;;;;2.93;2.63;;;19.90;60.90;;;;;;5069213;28;20442;-52
2023/10/11 03:27:36;;;;;;;4.23;3.00;;;19.90;61.80;;;;;;5062977;28;21789;-52
2023/10/11 03:30:11;;;;;;;5.00;2.83;;;20.00;61.00;;;;;;5069279;28;20449;-52
2023/10/11 03:32:43;;;;;;;3.90;2.87;;;19.90;61.20;;;;;;5065134;28;20433;-52
2023/10/11 03:35:16;;;;;;;5.57;3.53;;;20.00;61.60;;;;;;5066200;28;20482;-50
2023/10/11 03:37:57;;;;;;;3.80;3.03;;;19.90;61.40;;;;;;5063883;28;20498;-50
2023/10/11 03:40:35;;;;;;;5.90;3.00;;;19.90;61.20;;;;;;5066602;28;20473;-50
2023/10/11 03:43:11;;;;;;;4.67;3.87;;;19.90;61.10;;;;;;5068119;28;20631;-50
2023/10/11 03:45:49;;;;;;;5.47;3.43;;;19.90;61.00;;;;;;5063244;28;20465;-52
2023/10/11 03:48:20;;;;;;;4.00;3.13;;;19.90;60.70;;;;;;5066525;28;20788;-50
2023/10/11 03:50:51;;;;;;;4.23;3.40;;;19.90;61.60;;;;;;5068107;28;20460;-50
2023/10/11 03:53:21;;;;;;;5.10;3.10;;;19.90;61.20;;;;;;5064713;28;20453;-51
2023/10/11 03:55:50;;;;;;;4.07;3.30;;;19.90;61.40;;;;;;5068393;28;20462;-50
2023/10/11 03:58:32;;;;;;;9.73;3.80;;;19.90;61.00;;;;;;5065093;28;20430;-50
2023/10/11 04:01:12;;;;;;;5.47;3.90;;;19.90;60.70;;;;;;5062932;28;20470;-50
2023/10/11 04:03:41;;;;;;;3.83;3.43;;;19.90;61.00;;;;;;5065715;28;20474;-52
2023/10/11 04:06:19;;;;;;;5.00;3.53;;;19.90;61.10;;;;;;5064128;28;20461;-51
2023/10/11 04:08:54;;;;;;;6.17;4.10;;;19.90;60.80;;;;;;5064864;28;20430;-51
2023/10/11 04:11:37;;;;;;;4.83;3.10;;;19.90;60.60;;;;;;5065773;28;20493;-50
2023/10/11 04:14:12;;;;;;;4.17;3.03;;;19.90;60.80;;;;;;5065681;28;20860;-51
2023/10/11 04:16:44;;;;;;;4.40;3.70;;;19.90;61.00;;;;;;5067667;28;20879;-52
2023/10/11 04:19:13;;;;;;;5.10;3.80;;;19.90;61.40;;;;;;5068067;28;20974;-52
2023/10/11 04:21:54;;;;;;;3.50;3.20;;;19.90;61.30;;;;;;5063009;28;20462;-52
2023/10/11 04:24:23;;;;;;;5.17;3.10;;;19.90;61.00;;;;;;5067266;28;20468;-52
2023/10/11 04:26:58;;;;;;;4.40;2.90;;;19.90;60.50;;;;;;5066899;28;20561;-51
2023/10/11 04:29:31;;;;;;;4.53;3.57;;;19.90;60.90;;;;;;5067263;28;20442;-52
2023/10/11 04:32:14;;;;;;;4.00;2.77;;;19.90;61.00;;;;;;5065667;28;20866;-51
2023/10/11 04:34:55;;;;;;;3.63;2.80;;;19.90;61.70;;;;;;5067750;28;20554;-51
2023/10/11 04:37:28;;;;;;;5.93;3.00;;;19.90;61.50;;;;;;5063669;28;20793;-51
2023/10/11 04:40:15;;;;;;;3.13;2.83;;;19.90;61.50;;;;;;5066688;28;20442;-52
2023/10/11 04:42:44;;;;;;;3.67;2.93;;;19.90;61.50;;;;;;5067966;28;20454;-52
2023/10/11 04:45:28;;;;;;;4.40;3.20;;;19.90;62.00;;;;;;5067042;28;20499;-50
2023/10/11 04:48:19;;;;;;;3.60;2.73;;;19.90;62.00;;;;;;5065050;28;20426;-52
2023/10/11 04:50:50;;;;;;;4.17;3.07;;;19.80;61.30;;;;;;5064414;28;20462;-52
2023/10/11 04:53:21;;;;;;;3.20;2.90;;;19.80;61.60;;;;;;5064127;28;20487;-53
2023/10/11 04:55:59;;;;;;;4.87;2.73;;;19.80;61.20;;;;;;5065989;28;21023;-50
2023/10/11 04:58:41;;;;;;;3.70;2.40;;;19.90;60.70;;;;;;5066504;28;20460;-50
2023/10/11 05:01:11;;;;;;;4.47;3.00;;;19.80;61.50;;;;;;5064241;28;20462;-52
2023/10/11 05:03:42;;;;;;;3.37;2.60;;;19.80;61.40;;;;;;5067229;28;20569;-50
2023/10/11 05:06:30;;;;;;;3.87;2.93;;;19.90;61.80;;;;;;5064149;28;20465;-53
2023/10/11 05:09:11;;;;;;;3.03;2.70;;;19.80;61.40;;;;;;5064639;28;20518;-49
2023/10/11 05:11:43;;;;;;;3.03;2.63;;;19.80;61.90;;;;;;5066771;28;20500;-50
2023/10/11 05:17:31;;;;;;;3.47;2.93;;;19.80;61.40;;;;;;5042435;27;20611;-50
2023/10/11 05:20:22;;;;;;;3.80;3.33;;;19.80;61.40;;;;;;5038582;28;20823;-50
2023/10/11 05:22:52;;;;;;;2.93;2.60;;;19.80;61.40;;;;;;5033010;28;20452;-51
2023/10/11 05:25:52;;;;;;;3.73;3.30;;;19.80;61.70;;;;;;5028407;28;20490;-51
2023/10/11 05:28:43;;;;;;;5.70;2.90;;;19.80;61.40;;;;;;5026582;28;20440;-50
2023/10/11 05:31:22;;;;;;;4.40;2.50;;;19.80;61.60;;;;;;5041322;28;21070;-51
2023/10/11 05:36:48;;;;;;;4.17;3.10;;;19.80;62.10;;;;;;5045887;28;21003;-51
2023/10/11 05:50:54;;;;;;;4.60;3.23;;;19.80;61.30;;;;;;5060974;28;21083;-51
2023/10/11 05:53:25;;;;;;;4.00;3.53;;;19.80;61.40;;;;;;5059777;28;20439;-51
2023/10/11 05:55:54;;;;;;;3.93;2.70;;;19.80;61.50;;;;;;5060656;28;21065;-52
2023/10/11 05:58:23;;;;;;;4.27;3.10;;;19.80;61.50;;;;;;5043779;28;20426;-52
2023/10/11 06:00:54;;;;;;;4.10;2.67;;;19.80;61.80;;;;;;5056595;28;20493;-50
2023/10/11 06:03:28;;;;;;;4.53;3.20;;;19.80;61.60;;;;;;5059034;28;20453;-52
2023/10/11 06:06:10;;;;;;;3.50;2.90;;;19.80;61.50;;;;;;5062372;28;20512;-51
2023/10/11 06:08:39;;;;;;;3.67;2.93;;;19.80;61.50;;;;;;5060131;28;20430;-52
2023/10/11 06:11:08;;;;;;;5.47;2.87;;;19.80;61.80;;;;;;5043258;28;20516;-51
2023/10/11 06:13:37;;;;;;;3.43;3.10;;;19.80;61.70;;;;;;5060141;28;20827;-51
2023/10/11 06:16:07;;;;;;;5.07;3.70;;;19.80;61.80;;;;;;5056908;28;20474;-52
2023/10/11 06:18:42;;;;;;;5.87;3.57;;;19.70;61.30;;;;;;5059067;28;20438;-52
2023/10/11 06:21:24;;;;;;;3.60;2.87;;;19.80;61.30;;;;;;5056441;28;20478;-52
2023/10/11 06:23:53;;;;;;;3.50;2.87;;;19.70;61.00;;;;;;5061124;28;20821;-50
2023/10/11 06:29:07;;;;;;;4.30;3.40;;;19.80;60.70;;;;;;5012497;28;20428;-51
2023/10/11 06:31:39;;;;;;;3.47;3.13;;;19.70;61.20;;;;;;5021787;28;20483;-51
2023/10/11 06:34:16;;;;;;;7.80;2.90;;;19.70;60.90;;;;;;5037468;28;20455;-51
2023/10/11 06:36:48;;;;;;;3.60;3.20;;;19.70;60.90;;;;;;5034858;28;20478;-51
2023/10/11 06:42:12;;;;;;;3.60;3.00;;;19.80;61.30;;;;;;5026691;28;20929;-50
2023/10/11 06:44:42;;;;;;;3.37;3.07;;;19.70;61.90;;;;;;5025350;28;20562;-52
2023/10/11 06:47:11;;;;;;;2.83;2.53;;;19.70;61.80;;;;;;5044300;28;20451;-51
2023/10/11 06:49:44;;;;;;;3.87;2.80;;;19.70;62.80;;;;;;5046799;28;20442;-51
2023/10/11 06:52:17;;;;;;;3.30;3.00;;;19.80;62.00;;;;;;5041835;28;20462;-52
2023/10/11 06:54:47;;;;;;;4.83;3.20;;;19.70;62.10;;;;;;5046141;28;20542;-52
2023/10/11 06:57:19;;;;;;;3.43;2.63;;;19.70;61.80;;;;;;5044052;28;20502;-52
2023/10/11 06:59:56;;;;;;;4.27;3.00;;;19.70;62.20;;;;;;5043794;28;20447;-52
2023/10/11 07:02:32;;;;;;;3.67;3.00;;;19.80;62.30;;;;;;5044869;28;20442;-52
2023/10/11 07:05:05;;;;;;;5.33;2.87;;;19.80;62.30;;;;;;5047108;28;20458;-52
2023/10/11 07:07:35;;;;;;;4.30;3.00;;;19.70;62.60;;;;;;5044015;28;20439;-50
2023/10/11 07:10:23;;;;;;;5.00;2.73;;;19.80;62.70;;;;;;5045972;28;20446;-49
2023/10/11 07:13:03;;;;;;;7.00;3.20;;;19.80;62.90;;;;;;5043605;28;20545;-53
2023/10/11 07:15:40;;;;;;;2.90;2.43;;;19.80;62.10;;;;;;5044651;28;20463;-52
2023/10/11 07:18:11;;;;;;;3.40;2.50;;;19.70;62.60;;;;;;5046179;28;20430;-52
2023/10/11 07:20:58;;;;;;;4.50;3.00;;;19.70;62.70;;;;;;5046197;28;20514;-52
2023/10/11 07:23:45;;;;;;;2.80;2.43;;;19.80;63.10;;;;;;5042788;28;20447;-52
2023/10/11 07:29:16;;;;;;;3.13;2.90;;;19.80;63.40;;;;;;4978040;28;20430;-51
2023/10/11 07:31:53;;;;;;;4.70;2.47;;;19.70;63.00;;;;;;4973944;28;20469;-51
2023/10/11 07:34:21;;;;;;;3.00;2.43;;;19.70;63.10;;;;;;5003502;28;20467;-51
2023/10/11 07:36:50;;;;;;;4.03;3.50;;;19.80;63.10;;;;;;5016891;28;20472;-50
2023/10/11 07:39:25;;;;;;;4.07;2.50;;;19.70;62.70;;;;;;5013260;28;20652;-52
2023/10/11 07:42:04;;;;;;;2.97;2.17;;;19.70;62.70;;;;;;5014161;28;20469;-52
2023/10/11 07:44:36;;;;;;;3.20;2.17;;;19.70;63.30;;;;;;5017781;28;20444;-51
2023/10/11 07:47:08;;;;;;;2.70;2.50;;;19.70;63.20;;;;;;5018744;28;20912;-50
2023/10/11 07:49:39;;;;;;;2.80;2.50;;;19.70;63.60;;;;;;5018535;28;20436;-51
2023/10/11 07:52:09;;;;;;;3.47;2.50;;;19.70;63.60;;;;;;5013766;28;20495;-50
2023/10/11 07:54:40;;;;;;;2.50;2.20;;;19.70;63.60;;;;;;5014822;28;20814;-50
2023/10/11 07:57:14;;;;;;;2.90;2.53;;;19.70;63.60;;;;;;5014831;28;20579;-50
2023/10/11 07:59:43;;;;;;;2.63;2.33;;;19.70;63.60;;;;;;5020320;28;20983;-52
2023/10/11 08:02:26;;;;;;;3.30;2.80;;;19.70;63.60;;;;;;5018166;28;20464;-52
2023/10/11 08:04:57;;;;;;;3.60;2.87;;;19.70;63.60;;;;;;5018630;28;20892;-52
2023/10/11 08:07:25;;;;;;;3.40;3.10;;;19.80;63.60;;;;;;5013253;28;20440;-52
2023/10/11 08:09:55;;;;;;;4.23;2.90;;;19.70;63.30;;;;;;5016659;28;20954;-52
2023/10/11 08:12:25;;;;;;;3.93;3.00;;;19.80;63.60;;;;;;5021831;28;20518;-52
2023/10/11 08:14:56;;;;;;;2.70;2.43;;;19.70;63.60;;;;;;5016995;28;20467;-52
2023/10/11 08:17:29;;;;;;;4.57;3.20;;;19.80;63.60;;;;;;5034590;28;20477;-52
2023/10/11 08:19:58;;;;;;;2.70;2.40;;;19.80;63.60;;;;;;5042459;28;20810;-52
2023/10/11 08:22:28;;;;;;;3.50;2.77;;;19.80;63.60;;;;;;5035288;28;20456;-52
2023/10/11 08:24:59;;;;;;;3.03;2.63;;;19.80;63.60;;;;;;5038076;28;20467;-51
2023/10/11 08:27:28;;;;;;;3.10;2.47;;;19.80;63.50;;;;;;5032521;28;20432;-52
2023/10/11 08:30:07;;;;;;;3.03;2.50;;;19.80;63.50;;;;;;5028397;28;20534;-52
2023/10/11 08:32:42;;;;;;;3.50;2.50;;;19.80;63.30;;;;;;5032701;28;20494;-52
2023/10/11 08:35:16;;;;;;;4.83;3.37;;;19.80;63.30;;;;;;5028479;28;20818;-52
2023/10/11 08:37:52;;;;;;;3.87;2.37;;;19.80;63.20;;;;;;5026456;28;20471;-52
2023/10/11 08:40:29;;;;;;;2.97;2.67;;;19.70;63.20;;;;;;5026400;28;20513;-52
2023/10/11 08:43:00;;;;;;;2.97;2.53;;;19.80;63.10;;;;;;5026394;28;20447;-52
2023/10/11 08:45:33;;;;;;;4.90;2.40;;;19.80;63.10;;;;;;5029924;28;20891;-52
2023/10/11 08:48:03;;;;;;;2.80;2.60;;;19.80;63.20;;;;;;5026710;28;20446;-51
2023/10/11 08:50:34;;;;;;;3.80;2.67;;;19.80;63.00;;;;;;5025581;28;20463;-51
2023/10/11 08:53:08;;;;;;;6.63;3.27;;;19.80;62.80;;;;;;5025544;28;20450;-52
2023/10/11 08:55:39;;;;;;;3.07;2.60;;;19.80;63.10;;;;;;5028432;28;20464;-52
2023/10/11 08:58:12;;;;;;;3.50;2.87;;;19.80;63.00;;;;;;5027063;28;20497;-52
2023/10/11 09:00:47;;;;;;;3.80;2.90;;;19.80;62.90;;;;;;5030037;28;20907;-51
2023/10/11 09:03:18;;;;;;;3.00;2.63;;;19.80;63.00;;;;;;5034902;28;20527;-52
2023/10/11 09:05:47;;;;;;;3.00;2.60;;;19.80;62.80;;;;;;5030035;28;20517;-53
2023/10/11 09:08:26;;;;;;;3.33;2.47;;;19.80;62.90;;;;;;5037535;28;20447;-52
2023/10/11 09:11:11;;;;;;;2.53;2.30;;;19.80;62.70;;;;;;5036737;28;20506;-52
2023/10/11 09:13:41;;;;;;;3.70;3.20;;;19.80;62.80;;;;;;5034243;28;20458;-52
2023/10/11 09:16:12;;;;;;;3.70;2.60;;;19.80;62.70;;;;;;5031681;28;20487;-52
2023/10/11 09:18:41;;;;;;;3.20;2.70;;;19.80;62.70;;;;;;5023881;28;20483;-51
2023/10/11 09:21:15;;;;;;;3.37;3.07;;;19.80;62.70;;;;;;5013866;28;21013;-52
2023/10/11 09:23:47;;;;;;;3.53;3.17;;;19.80;62.50;;;;;;5040229;28;20513;-52
2023/10/11 09:26:32;;;;;;;3.03;2.57;;;19.80;62.60;;;;;;5032866;28;20470;-52
2023/10/11 09:29:16;;;;;;;5.47;2.70;;;19.80;62.70;;;;;;5032778;28;21600;-51
2023/10/11 09:31:58;;;;;;;3.97;2.90;;;19.80;62.30;;;;;;5021502;28;20570;-52
2023/10/11 09:34:30;;;;;;;3.77;2.90;;;19.80;62.50;;;;;;5044929;28;20841;-52
2023/10/11 09:36:58;;;;;;;4.20;3.03;;;19.80;62.50;;;;;;5041886;28;20485;-52
2023/10/11 09:39:29;;;;;;;3.80;3.30;;;19.80;62.60;;;;;;5042385;28;20447;-52
2023/10/11 09:42:03;;;;;;;3.30;2.70;;;19.80;62.70;;;;;;5043524;28;20470;-51
2023/10/11 09:44:37;;;;;;;4.43;3.20;;;19.80;62.60;;;;;;5043323;28;20482;-52
2023/10/11 09:47:06;;;;;;;3.70;3.10;;;19.80;62.60;;;;;;5038663;28;21026;-50
2023/10/11 09:49:42;;;;;;;3.03;2.73;;;19.80;62.70;;;;;;5042546;28;20443;-51
2023/10/11 09:52:11;;;;;;;3.67;2.73;;;19.80;62.50;;;;;;5034756;28;20480;-52
2023/10/11 09:54:41;;;;;;;4.13;3.10;;;19.80;62.60;;;;;;5043647;28;20473;-50
2023/10/11 09:57:23;;;;;;;4.07;2.20;;;19.80;62.50;;;;;;5044746;28;20471;-52
2023/10/11 10:00:03;;;;;;;3.07;2.77;;;19.80;62.60;;;;;;5044175;28;20916;-49
2023/10/11 10:02:36;;;;;;;3.40;2.67;;;19.80;62.50;;;;;;5042847;28;21290;-49
2023/10/11 10:05:05;;;;;;;4.77;2.77;;;19.80;62.50;;;;;;5045741;28;20471;-50
2023/10/11 10:07:44;;;;;;;4.43;3.20;;;19.90;62.60;;;;;;5042598;28;20450;-50
2023/10/11 10:10:15;;;;;;;5.30;3.30;;;19.90;62.50;;;;;;5042538;28;20968;-50
2023/10/11 10:12:57;;;;;;;3.33;2.80;;;19.90;62.60;;;;;;5042977;28;20465;-52
2023/10/11 10:15:32;;;;;;;4.20;3.00;;;19.80;62.60;;;;;;5043532;28;20463;-49
2023/10/11 10:18:19;;;;;;;3.40;2.80;;;19.80;62.60;;;;;;5045421;28;20975;-52
2023/10/11 10:21:01;;;;;;;3.30;2.47;;;19.80;62.70;;;;;;5046712;28;20443;-52
2023/10/11 10:23:37;;;;;;;3.77;2.63;;;19.80;62.60;;;;;;5042787;28;20808;-51
2023/10/11 10:26:38;;;;;;;4.03;2.70;;;19.80;62.60;;;;;;5041547;28;20470;-52
2023/10/11 10:29:11;;;;;;;3.80;2.80;;;19.80;62.40;;;;;;5039929;28;20463;-52
2023/10/11 10:32:06;;;;;;;4.70;3.30;;;19.90;62.50;;;;;;5043321;28;20469;-51
2023/10/11 10:34:41;;;;;;;4.30;3.00;;;19.90;62.40;;;;;;5041410;28;20462;-50
2023/10/11 10:37:44;;;;;;;3.10;2.77;;;19.90;63.80;;;;;;5038188;28;20897;-51
2023/10/11 10:40:18;;;;;;;2.93;2.60;;;19.80;62.40;;;;;;5045766;28;20552;-51
2023/10/11 10:43:21;;;;;;;3.30;2.50;;;19.80;62.20;;;;;;5045685;28;20438;-50
2023/10/11 10:45:51;;;;;;;3.13;2.73;;;19.90;62.40;;;;;;5042361;28;20764;-51
2023/10/11 10:48:23;;;;;;;3.53;2.63;;;19.90;62.60;;;;;;5044656;28;20828;-50
2023/10/11 10:50:52;;;;;;;4.10;3.10;;;19.90;62.60;;;;;;5045869;28;20439;-50
2023/10/11 10:53:27;;;;;;;3.57;2.40;;;19.90;62.40;;;;;;5043385;28;20462;-50
2023/10/11 10:55:58;;;;;;;4.00;2.70;;;19.90;62.40;;;;;;5045336;28;20443;-52
2023/10/11 10:58:27;;;;;;;2.87;2.57;;;19.90;62.40;;;;;;5045208;28;20951;-50
2023/10/11 11:00:59;;;;;;;3.10;2.80;;;19.90;62.50;;;;;;5044021;28;20509;-50
2023/10/11 11:03:32;;;;;;;3.77;2.50;;;19.90;62.60;;;;;;5044466;28;20978;-49
2023/10/11 11:06:01;;;;;;;3.40;2.80;;;19.90;62.30;;;;;;5048489;28;20423;-49
2023/10/11 11:08:37;;;;;;;10.40;3.40;;;19.90;62.20;;;;;;5041693;28;20936;-52
2023/10/11 11:11:19;;;;;;;4.87;3.03;;;19.90;62.20;;;;;;5043444;28;20516;-51
2023/10/11 11:13:48;;;;;;;3.10;2.17;;;19.90;62.10;;;;;;5044793;28;20829;-50
2023/10/11 11:16:19;;;;;;;2.67;2.30;;;19.90;62.30;;;;;;5042735;28;20732;-51
2023/10/11 11:18:47;;;;;;;5.93;3.77;;;19.90;62.30;;;;;;5043122;28;20497;-50
2023/10/11 11:21:21;;;;;;;3.20;2.50;;;19.90;62.30;;;;;;5040971;28;20459;-51
2023/10/11 11:23:50;;;;;;;3.30;2.80;;;19.90;62.00;;;;;;5044159;28;20459;-51
2023/10/11 11:26:21;;;;;;;5.20;3.33;;;19.90;62.20;;;;;;5041454;28;20866;-51
2023/10/11 11:29:08;;;;;;;3.33;2.63;;;19.90;62.30;;;;;;5038879;28;20966;-52
2023/10/11 11:31:52;;;;;;;3.30;3.00;;;20.00;62.20;;;;;;5041358;28;20482;-51
2023/10/11 11:34:27;;;;;;;6.40;2.90;;;19.90;62.10;;;;;;5042565;28;21658;-49
2023/10/11 11:36:58;;;;;;;3.47;2.80;;;19.90;62.10;;;;;;5040617;28;20548;-50
2023/10/11 11:39:50;;;;;;;3.13;2.83;;;19.90;62.20;;;;;;5041210;28;20455;-52
2023/10/11 11:42:20;;;;;;;3.03;2.73;;;20.00;62.30;;;;;;5041690;28;20451;-51
2023/10/11 11:44:49;;;;;;;3.53;2.57;;;20.00;62.10;;;;;;5045699;28;20451;-50
2023/10/11 11:47:22;;;;;;;4.80;3.30;;;20.00;62.10;;;;;;5042538;28;20489;-51
2023/10/11 11:49:53;;;;;;;3.30;2.67;;;20.00;62.40;;;;;;5045879;28;20432;-52
2023/10/11 11:52:22;;;;;;;4.20;3.17;;;20.00;62.10;;;;;;5042695;28;21003;-51
2023/10/11 11:54:49;;;;;;;3.97;2.90;;;20.00;62.20;;;;;;5045488;28;20466;-50
2023/10/11 11:57:28;;;;;;;4.87;3.00;;;20.00;62.10;;;;;;5044832;28;20487;-51
2023/10/11 11:59:56;;;;;;;3.53;3.23;;;20.00;62.00;;;;;;5027865;28;20493;-52
2023/10/11 12:02:26;;;;;;;4.30;2.67;;;20.00;62.20;;;;;;5041391;28;20463;-51
2023/10/11 12:04:56;;;;;;;3.37;2.80;;;20.00;62.10;;;;;;5045372;28;20503;-52
2023/10/11 12:07:27;;;;;;;4.40;3.13;;;20.00;62.40;;;;;;5040836;28;20496;-55
2023/10/11 12:09:56;;;;;;;5.45;3.00;;;20.00;61.90;;;;;;5045368;28;20443;-52
2023/10/11 12:12:27;;;;;;;4.13;2.90;;;20.10;60.70;;;;;;5045457;28;20189;-50
2023/10/11 12:14:55;;;;;;;7.70;3.40;;;20.10;60.70;;;;;;5042919;28;20467;-50
2023/10/11 12:17:25;;;;;;;5.50;3.53;;;20.10;60.30;;;;;;5043868;28;20492;-50
2023/10/11 12:19:54;;;;;;;7.03;3.03;;;20.20;60.60;;;;;;5044744;28;20475;-52
2023/10/11 12:22:23;;;;;;;5.83;3.67;;;20.10;60.20;;;;;;5042115;28;20820;-51
2023/10/11 12:24:52;;;;;;;4.73;3.33;;;20.10;60.50;;;;;;5040774;28;20490;-52
2023/10/11 12:27:22;;;;;;;4.77;2.80;;;20.10;60.90;;;;;;5042020;28;20940;-51
2023/10/11 12:29:53;;;;;;;6.20;3.50;;;20.10;61.00;;;;;;5039970;28;20631;-51
2023/10/11 12:32:26;;;;;;;6.43;3.20;;;20.10;61.00;;;;;;5042795;28;20542;-51
2023/10/11 12:34:55;;;;;;;4.57;3.10;;;20.10;61.20;;;;;;5044207;28;20987;-51
2023/10/11 12:37:26;;;;;;;4.20;3.23;;;20.10;61.20;;;;;;5042739;28;20531;-51
2023/10/11 12:39:55;;;;;;;5.40;3.20;;;20.00;61.30;;;;;;5044361;28;20463;-51
2023/10/11 12:42:23;;;;;;;5.37;3.63;;;20.00;61.30;;;;;;5043673;28;20442;-51
2023/10/11 12:44:53;;;;;;;4.00;3.40;;;20.00;61.40;;;;;;5044424;28;20474;-51
2023/10/11 12:47:21;;;;;;;4.43;3.50;;;20.00;61.40;;;;;;5044782;28;21010;-51
2023/10/11 12:49:50;;;;;;;3.83;2.77;;;20.00;61.50;;;;;;5045404;28;20443;-51
2023/10/11 12:52:19;;;;;;;5.00;3.20;;;20.10;61.40;;;;;;5020832;28;20459;-51
2023/10/11 12:54:47;;;;;;;5.00;3.10;;;20.10;61.20;;;;;;5045089;28;20520;-51
2023/10/11 12:57:15;;;;;;;4.00;3.13;;;20.10;61.40;;;;;;5044150;28;20449;-52
2023/10/11 12:59:44;;;;;;;4.97;3.87;;;20.10;61.30;;;;;;5044258;28;20504;-52
2023/10/11 13:02:20;;;;;;;3.10;2.80;;;20.10;61.30;;;;;;5043012;28;20474;-51
2023/10/11 13:04:52;;;;;;;5.20;3.57;;;20.10;61.40;;;;;;5045763;28;20459;-52
2023/10/11 13:07:26;;;;;;;4.23;3.63;;;20.10;61.50;;;;;;5039598;28;20490;-52
2023/10/11 13:10:02;;;;;;;4.93;3.00;;;20.10;61.50;;;;;;5044699;28;20861;-51
2023/10/11 13:12:37;;;;;;;4.10;3.20;;;20.10;61.50;;;;;;5043993;28;20427;-53
2023/10/11 13:15:08;;;;;;;5.47;3.60;;;20.10;61.50;;;;;;5045308;28;20466;-51
2023/10/11 13:17:40;;;;;;;3.50;3.17;;;20.10;61.30;;;;;;5039096;28;20443;-52
2023/10/11 13:20:18;;;;;;;4.57;3.33;;;20.10;61.20;;;;;;5044559;28;20607;-51
2023/10/11 13:22:47;;;;;;;3.90;2.90;;;20.10;61.60;;;;;;5040324;28;20466;-51
2023/10/11 13:25:23;;;;;;;3.13;2.87;;;20.10;61.60;;;;;;5043828;28;20478;-51
2023/10/11 13:28:03;;;;;;;3.80;2.80;;;20.10;61.50;;;;;;5041876;28;20443;-52
2023/10/11 13:30:36;;;;;;;5.17;2.90;;;20.10;61.50;;;;;;5041434;28;20455;-52
2023/10/11 13:33:09;;;;;;;8.63;3.27;;;20.10;61.70;;;;;;5043867;28;20435;-52
2023/10/11 13:35:39;;;;;;;3.23;2.93;;;20.10;61.40;;;;;;5043613;28;20502;-51
2023/10/11 13:38:16;;;;;;;5.20;2.90;;;20.20;61.40;;;;;;5043077;28;20453;-50
2023/10/11 13:40:50;;;;;;;3.37;2.87;;;20.10;61.30;;;;;;5048708;28;20521;-52
2023/10/11 13:43:22;;;;;;;3.57;3.27;;;20.10;61.60;;;;;;5047068;28;20443;-52
2023/10/11 13:45:56;;;;;;;4.50;3.53;;;20.10;61.50;;;;;;5047097;28;20451;-51